createdAt,value
2023-05-21T00:00:44.471Z,16.55
2023-05-21T00:03:14.304Z,16.54
2023-05-21T00:05:45.310Z,16.56
2023-05-21T00:08:12.196Z,16.56
2023-05-21T00:10:39.038Z,16.42
2023-05-21T00:13:06.004Z,16.24
2023-05-21T00:15:33.031Z,16.45
2023-05-21T00:18:00.081Z,16.43
2023-05-21T00:20:33.083Z,16.25
2023-05-21T00:23:02.957Z,16.42
2023-05-21T00:25:32.240Z,16.38
2023-05-21T00:27:59.056Z,16.12
2023-05-21T00:30:30.785Z,16.22
2023-05-21T00:32:59.093Z,16.25
2023-05-21T00:35:30.832Z,16.17
2023-05-21T00:38:00.676Z,15.98
2023-05-21T00:40:27.678Z,16.12
2023-05-21T00:42:57.385Z,15.77
2023-05-21T00:45:25.793Z,16.23
2023-05-21T00:47:55.011Z,15.90
2023-05-21T00:50:23.458Z,16.19
2023-05-21T00:52:50.687Z,15.92
2023-05-21T00:55:17.647Z,15.83
2023-05-21T00:57:49.758Z,15.68
2023-05-21T01:00:16.774Z,15.67
2023-05-21T01:02:44.603Z,15.86
2023-05-21T01:05:12.263Z,15.93
2023-05-21T01:07:41.861Z,15.57
2023-05-21T01:10:11.822Z,15.59
2023-05-21T01:12:40.607Z,15.79
2023-05-21T01:15:08.790Z,15.93
2023-05-21T01:17:35.950Z,15.86
2023-05-21T01:20:12.623Z,15.76
2023-05-21T01:22:44.164Z,15.75
2023-05-21T01:25:11.314Z,15.70
2023-05-21T01:27:42.871Z,15.68
2023-05-21T01:30:13.603Z,15.53
2023-05-21T01:33:02.797Z,15.74
2023-05-21T01:35:34.825Z,15.87
2023-05-21T01:38:08.098Z,15.55
2023-05-21T01:40:40.779Z,15.80
2023-05-21T01:43:09.623Z,15.70
2023-05-21T01:45:40.754Z,15.70
2023-05-21T01:48:09.303Z,15.75
2023-05-21T01:50:38.129Z,15.70
2023-05-21T01:53:06.239Z,15.52
2023-05-21T01:55:33.650Z,15.68
2023-05-21T01:58:05.389Z,15.41
2023-05-21T02:00:34.860Z,15.29
2023-05-21T02:03:04.156Z,15.49
2023-05-21T02:05:31.492Z,15.12
2023-05-21T02:08:00.196Z,15.23
2023-05-21T02:10:27.563Z,15.30
2023-05-21T02:12:54.538Z,15.32
2023-05-21T02:15:21.528Z,15.37
2023-05-21T02:17:52.785Z,15.39
2023-05-21T02:20:20.180Z,15.48
2023-05-21T02:22:48.315Z,15.53
2023-05-21T02:25:16.998Z,15.32
2023-05-21T02:27:44.725Z,15.49
2023-05-21T02:30:13.000Z,15.41
2023-05-21T02:32:43.841Z,15.35
2023-05-21T02:35:12.922Z,15.24
2023-05-21T02:37:40.762Z,15.46
2023-05-21T02:40:10.089Z,15.39
2023-05-21T02:42:39.987Z,15.22
2023-05-21T02:45:12.447Z,15.35
2023-05-21T02:47:41.921Z,15.21
2023-05-21T02:50:16.302Z,15.24
2023-05-21T02:52:48.901Z,15.04
2023-05-21T02:55:18.136Z,15.20
2023-05-21T02:57:45.055Z,15.01
2023-05-21T03:00:12.715Z,15.01
2023-05-21T03:02:41.343Z,15.19
2023-05-21T03:05:08.887Z,15.26
2023-05-21T03:07:35.767Z,15.01
2023-05-21T03:10:05.441Z,14.76
2023-05-21T03:12:32.337Z,14.67
2023-05-21T03:14:59.845Z,14.92
2023-05-21T03:17:30.421Z,14.67
2023-05-21T03:19:59.785Z,14.80
2023-05-21T03:22:26.613Z,14.76
2023-05-21T03:24:56.128Z,14.87
2023-05-21T03:27:23.920Z,14.67
2023-05-21T03:29:52.108Z,14.79
2023-05-21T03:32:19.142Z,14.73
2023-05-21T03:34:49.673Z,14.79
2023-05-21T03:37:18.337Z,14.82
2023-05-21T03:39:45.314Z,14.78
2023-05-21T03:42:14.298Z,14.73
2023-05-21T03:44:46.820Z,14.95
2023-05-21T03:47:43.245Z,14.76
2023-05-21T03:50:11.216Z,14.56
2023-05-21T03:52:45.635Z,14.89
2023-05-21T03:55:12.718Z,14.78
2023-05-21T03:57:40.244Z,14.86
2023-05-21T04:00:10.253Z,14.81
2023-05-21T04:02:42.798Z,14.78
2023-05-21T04:05:10.150Z,14.75
2023-05-21T04:07:38.489Z,14.63
2023-05-21T04:10:10.457Z,14.70
2023-05-21T04:12:37.314Z,14.56
2023-05-21T04:15:05.086Z,14.68
2023-05-21T04:17:32.188Z,14.75
2023-05-21T04:20:04.232Z,14.66
2023-05-21T04:22:31.140Z,14.73
2023-05-21T04:24:59.829Z,14.67
2023-05-21T04:27:32.488Z,14.68
2023-05-21T04:29:59.391Z,14.70
2023-05-21T04:32:28.748Z,14.61
2023-05-21T04:34:55.811Z,14.59
2023-05-21T04:37:28.129Z,14.69
2023-05-21T04:39:55.957Z,14.60
2023-05-21T04:42:24.327Z,14.67
2023-05-21T04:44:55.726Z,14.70
2023-05-21T04:47:23.066Z,14.65
2023-05-21T04:49:55.356Z,14.65
2023-05-21T04:52:22.263Z,14.61
2023-05-21T04:54:49.223Z,14.67
2023-05-21T04:57:16.137Z,14.42
2023-05-21T04:59:43.941Z,14.67
2023-05-21T05:02:13.778Z,14.69
2023-05-21T05:04:40.625Z,14.66
2023-05-21T05:07:07.781Z,14.73
2023-05-21T05:09:34.749Z,14.65
2023-05-21T05:12:02.193Z,14.55
2023-05-21T05:14:29.220Z,14.71
2023-05-21T05:17:01.012Z,15.00
2023-05-21T05:19:28.719Z,14.96
2023-05-21T05:22:00.234Z,14.94
2023-05-21T05:24:29.308Z,14.86
2023-05-21T05:26:59.173Z,14.96
2023-05-21T05:29:33.874Z,15.00
2023-05-21T05:32:01.020Z,14.97
2023-05-21T05:34:32.595Z,15.01
2023-05-21T05:36:59.606Z,15.04
2023-05-21T05:39:34.239Z,15.03
2023-05-21T05:42:05.297Z,15.06
2023-05-21T05:44:32.701Z,15.03
2023-05-21T05:47:10.909Z,15.03
2023-05-21T05:49:43.901Z,15.14
2023-05-21T05:52:15.552Z,15.14
2023-05-21T05:54:42.418Z,15.20
2023-05-21T05:57:11.841Z,15.22
2023-05-21T05:59:43.388Z,15.26
2023-05-21T06:02:14.209Z,15.27
2023-05-21T06:04:44.720Z,15.25
2023-05-21T06:07:13.783Z,15.32
2023-05-21T06:09:40.659Z,15.28
2023-05-21T06:12:14.705Z,15.38
2023-05-21T06:14:47.537Z,15.34
2023-05-21T06:17:19.879Z,15.39
2023-05-21T06:19:59.646Z,15.50
2023-05-21T06:22:29.996Z,15.48
2023-05-21T06:24:59.330Z,15.55
2023-05-21T06:27:31.193Z,15.60
2023-05-21T06:30:04.790Z,15.58
2023-05-21T06:32:34.249Z,15.68
2023-05-21T06:35:08.697Z,15.66
2023-05-21T06:37:37.909Z,15.71
2023-05-21T06:40:12.755Z,15.81
2023-05-21T06:42:42.992Z,15.79
2023-05-21T06:45:22.343Z,15.89
2023-05-21T06:47:52.945Z,15.86
2023-05-21T06:50:25.796Z,15.99
2023-05-21T06:53:00.046Z,16.04
2023-05-21T06:55:34.363Z,16.03
2023-05-21T06:58:23.991Z,16.13
2023-05-21T07:00:56.139Z,16.25
2023-05-21T07:03:23.311Z,16.31
2023-05-21T07:05:53.792Z,16.37
2023-05-21T07:08:28.483Z,16.41
2023-05-21T07:10:58.066Z,16.49
2023-05-21T07:13:27.578Z,16.58
2023-05-21T07:15:54.422Z,16.63
2023-05-21T07:18:26.218Z,16.67
2023-05-21T07:20:55.316Z,16.73
2023-05-21T07:23:27.832Z,16.80
2023-05-21T07:25:59.509Z,16.85
2023-05-21T07:28:31.796Z,16.89
2023-05-21T07:31:01.179Z,16.96
2023-05-21T07:33:34.339Z,16.98
2023-05-21T07:36:09.545Z,17.05
2023-05-21T07:38:46.401Z,17.03
2023-05-21T07:41:18.428Z,17.12
2023-05-21T07:43:48.591Z,17.10
2023-05-21T07:46:16.165Z,17.17
2023-05-21T07:48:46.733Z,17.24
2023-05-21T07:51:16.732Z,17.14
2023-05-21T07:53:46.495Z,17.30
2023-05-21T07:56:21.338Z,17.31
2023-05-21T07:58:54.111Z,17.38
2023-05-21T08:01:26.197Z,17.36
2023-05-21T08:04:01.056Z,17.40
2023-05-21T08:06:28.191Z,17.37
2023-05-21T08:08:55.010Z,17.44
2023-05-21T08:11:24.363Z,17.39
2023-05-21T08:13:51.739Z,17.46
2023-05-21T08:16:23.567Z,17.48
2023-05-21T08:18:53.455Z,17.44
2023-05-21T08:21:22.821Z,17.50
2023-05-21T08:23:54.526Z,17.53
2023-05-21T08:26:23.781Z,17.56
2023-05-21T08:28:58.549Z,17.53
2023-05-21T08:31:30.171Z,17.60
2023-05-21T08:33:59.184Z,17.64
2023-05-21T08:36:46.240Z,17.67
2023-05-21T08:39:35.837Z,17.62
2023-05-21T08:42:17.638Z,17.64
2023-05-21T08:44:57.581Z,17.72
2023-05-21T08:47:27.916Z,17.66
2023-05-21T08:50:01.601Z,17.79
2023-05-21T08:52:28.964Z,17.74
2023-05-21T08:55:03.900Z,17.81
2023-05-21T08:57:34.286Z,17.86
2023-05-21T09:00:04.878Z,17.81
2023-05-21T09:02:40.876Z,17.83
2023-05-21T09:05:09.430Z,17.97
2023-05-21T09:07:52.479Z,18.01
2023-05-21T09:10:41.929Z,18.02
2023-05-21T09:13:12.172Z,18.05
2023-05-21T09:15:43.878Z,18.08
2023-05-21T09:18:17.614Z,18.13
2023-05-21T09:20:50.006Z,18.14
2023-05-21T09:23:22.687Z,18.20
2023-05-21T09:25:52.879Z,18.32
2023-05-21T09:28:26.602Z,18.39
2023-05-21T09:30:56.148Z,18.43
2023-05-21T09:33:30.025Z,18.50
2023-05-21T09:35:59.471Z,18.56
2023-05-21T09:38:36.675Z,18.61
2023-05-21T09:41:09.985Z,18.66
2023-05-21T09:43:45.189Z,18.69
2023-05-21T09:46:15.752Z,18.77
2023-05-21T09:48:46.016Z,18.77
2023-05-21T09:51:20.585Z,18.87
2023-05-21T09:53:58.211Z,18.87
2023-05-21T09:56:30.942Z,19.04
2023-05-21T09:59:04.610Z,19.14
2023-05-21T10:01:39.907Z,19.19
2023-05-21T10:04:12.648Z,19.32
2023-05-21T10:06:43.985Z,19.43
2023-05-21T10:09:18.989Z,19.32
2023-05-21T10:11:54.708Z,19.71
2023-05-21T10:14:29.572Z,19.84
2023-05-21T10:17:07.578Z,19.95
2023-05-21T10:19:40.112Z,20.05
2023-05-21T10:22:08.367Z,20.16
2023-05-21T10:24:39.686Z,20.26
2023-05-21T10:27:08.881Z,20.38
2023-05-21T10:29:37.632Z,20.45
2023-05-21T10:32:06.163Z,20.51
2023-05-21T10:34:38.045Z,20.58
2023-05-21T10:37:10.144Z,20.60
2023-05-21T10:39:45.995Z,20.74
2023-05-21T10:42:49.114Z,20.78
2023-05-21T10:45:37.206Z,20.85
2023-05-21T10:48:42.779Z,21.01
2023-05-21T10:51:21.347Z,21.10
2023-05-21T10:54:02.734Z,21.18
2023-05-21T10:56:52.865Z,21.24
2023-05-21T10:59:42.642Z,21.28
2023-05-21T11:02:18.047Z,21.33
2023-05-21T11:04:49.494Z,21.33
2023-05-21T11:09:56.294Z,21.43
2023-05-21T11:12:33.595Z,21.43
2023-05-21T11:15:07.256Z,21.51
2023-05-21T11:17:40.334Z,21.51
2023-05-21T11:20:16.875Z,21.58
2023-05-21T11:22:48.964Z,21.61
2023-05-21T11:25:18.840Z,21.64
2023-05-21T11:27:53.044Z,21.69
2023-05-21T11:30:22.429Z,21.68
2023-05-21T11:33:14.213Z,21.75
2023-05-21T11:35:46.458Z,21.79
2023-05-21T11:38:20.238Z,21.82
2023-05-21T11:40:56.650Z,21.89
2023-05-21T11:43:28.283Z,21.95
2023-05-21T11:46:02.412Z,21.99
2023-05-21T11:48:33.468Z,22.06
2023-05-21T11:51:05.729Z,22.12
2023-05-21T11:53:35.516Z,22.20
2023-05-21T11:56:05.240Z,22.31
2023-05-21T11:58:37.047Z,22.40
2023-05-21T12:01:06.244Z,22.51
2023-05-21T12:03:37.576Z,22.63
2023-05-21T12:06:07.019Z,22.70
2023-05-21T12:08:38.508Z,22.75
2023-05-21T12:11:07.832Z,22.94
2023-05-21T12:13:42.057Z,23.03
2023-05-21T12:16:18.227Z,23.10
2023-05-21T12:18:49.699Z,23.10
2023-05-21T12:21:19.262Z,23.25
2023-05-21T12:23:48.652Z,23.37
2023-05-21T12:26:18.068Z,23.45
2023-05-21T12:28:47.925Z,23.53
2023-05-21T12:31:17.322Z,23.57
2023-05-21T12:33:58.287Z,23.65
2023-05-21T12:36:30.822Z,23.80
2023-05-21T12:38:59.931Z,23.86
2023-05-21T12:41:32.297Z,23.81
2023-05-21T12:44:05.232Z,23.92
2023-05-21T12:46:34.567Z,23.98
2023-05-21T12:49:04.377Z,24.03
2023-05-21T12:51:45.341Z,24.10
2023-05-21T12:54:14.707Z,24.14
2023-05-21T12:56:47.148Z,24.12
2023-05-21T12:59:19.277Z,24.18
2023-05-21T13:01:54.464Z,24.13
2023-05-21T13:04:24.373Z,24.20
2023-05-21T13:06:58.444Z,24.27
2023-05-21T13:09:30.636Z,24.36
2023-05-21T13:12:02.155Z,24.38
2023-05-21T13:14:34.068Z,24.41
2023-05-21T13:17:03.218Z,24.42
2023-05-21T13:19:34.779Z,24.44
2023-05-21T13:22:07.332Z,24.48
2023-05-21T13:24:37.430Z,24.51
2023-05-21T13:27:08.866Z,24.54
2023-05-21T13:29:38.654Z,24.55
2023-05-21T13:32:08.125Z,24.55
2023-05-21T13:34:37.326Z,24.56
2023-05-21T13:37:06.558Z,24.52
2023-05-21T13:39:33.367Z,24.59
2023-05-21T13:42:02.607Z,24.64
2023-05-21T13:44:36.808Z,24.53
2023-05-21T13:47:07.174Z,24.70
2023-05-21T13:49:39.776Z,24.73
2023-05-21T13:52:09.921Z,24.75
2023-05-21T13:54:36.952Z,24.78
2023-05-21T13:57:06.585Z,24.73
2023-05-21T13:59:33.871Z,24.74
2023-05-21T14:02:01.113Z,24.82
2023-05-21T14:04:30.337Z,24.87
2023-05-21T14:07:00.181Z,24.85
2023-05-21T14:09:32.943Z,24.96
2023-05-21T14:12:06.576Z,25.02
2023-05-21T14:14:38.606Z,25.02
2023-05-21T14:17:12.724Z,24.85
2023-05-21T14:19:39.593Z,24.97
2023-05-21T14:22:13.503Z,24.97
2023-05-21T14:24:42.642Z,24.94
2023-05-21T14:27:17.458Z,24.95
2023-05-21T14:29:49.063Z,24.87
2023-05-21T14:32:19.546Z,24.90
2023-05-21T14:34:48.795Z,24.81
2023-05-21T14:37:20.495Z,24.80
2023-05-21T14:39:49.843Z,24.73
2023-05-21T14:42:19.157Z,24.84
2023-05-21T14:44:52.370Z,24.81
2023-05-21T14:47:21.917Z,24.80
2023-05-21T14:49:51.684Z,24.78
2023-05-21T14:52:23.496Z,24.80
2023-05-21T14:54:52.798Z,24.76
2023-05-21T14:57:19.691Z,24.74
2023-05-21T14:59:49.091Z,24.70
2023-05-21T15:02:23.064Z,24.73
2023-05-21T15:04:56.501Z,24.70
2023-05-21T15:07:25.706Z,24.61
2023-05-21T15:09:54.969Z,24.59
2023-05-21T15:12:29.178Z,24.61
2023-05-21T15:15:03.152Z,24.58
2023-05-21T15:17:30.056Z,24.54
2023-05-21T15:20:01.737Z,24.53
2023-05-21T15:22:33.082Z,24.47
2023-05-21T15:25:04.897Z,24.41
2023-05-21T15:27:34.523Z,24.41
2023-05-21T15:30:08.947Z,24.36
2023-05-21T15:32:38.333Z,24.35
2023-05-21T15:35:05.589Z,24.30
2023-05-21T15:37:37.420Z,24.31
2023-05-21T15:40:08.949Z,24.24
2023-05-21T15:42:40.261Z,24.22
2023-05-21T15:45:12.515Z,24.20
2023-05-21T15:47:42.923Z,24.16
2023-05-21T15:50:12.735Z,24.15
2023-05-21T15:52:44.205Z,24.13
2023-05-21T15:55:16.317Z,24.07
2023-05-21T15:57:47.967Z,24.08
2023-05-21T16:00:22.270Z,24.05
2023-05-21T16:02:58.663Z,23.99
2023-05-21T16:05:28.807Z,23.93
2023-05-21T16:07:55.676Z,23.92
2023-05-21T16:10:27.254Z,23.90
2023-05-21T16:12:54.094Z,23.88
2023-05-21T16:15:23.278Z,23.87
2023-05-21T16:17:55.085Z,23.83
2023-05-21T16:20:30.852Z,23.75
2023-05-21T16:23:03.799Z,23.73
2023-05-21T16:25:38.974Z,23.69
2023-05-21T16:28:12.417Z,23.69
2023-05-21T16:30:42.035Z,23.66
2023-05-21T16:33:08.913Z,23.66
2023-05-21T16:35:38.557Z,23.64
2023-05-21T16:38:12.685Z,23.63
2023-05-21T16:40:40.598Z,23.58
2023-05-21T16:43:11.926Z,23.58
2023-05-21T16:45:42.383Z,23.57
2023-05-21T16:48:09.786Z,23.54
2023-05-21T16:50:38.985Z,23.50
2023-05-21T16:53:07.761Z,23.48
2023-05-21T16:55:37.922Z,23.46
2023-05-21T16:58:11.064Z,23.45
2023-05-21T17:00:45.054Z,23.40
2023-05-21T17:03:12.814Z,23.40
2023-05-21T17:05:44.553Z,23.38
2023-05-21T17:08:13.700Z,23.36
2023-05-21T17:10:42.766Z,23.33
2023-05-21T17:13:22.216Z,23.31
2023-05-21T17:15:55.338Z,23.27
2023-05-21T17:18:27.146Z,23.23
2023-05-21T17:20:56.625Z,23.20
2023-05-21T17:23:25.908Z,23.17
2023-05-21T17:25:52.787Z,23.14
2023-05-21T17:28:24.789Z,23.09
2023-05-21T17:30:52.066Z,23.06
2023-05-21T17:33:21.602Z,23.02
2023-05-21T17:35:57.120Z,22.99
2023-05-21T17:38:23.950Z,22.97
2023-05-21T17:40:53.070Z,22.95
2023-05-21T17:43:22.953Z,22.90
2023-05-21T17:45:49.816Z,22.91
2023-05-21T17:48:20.987Z,22.89
2023-05-21T17:50:53.713Z,22.81
2023-05-21T17:53:23.067Z,22.80
2023-05-21T17:55:54.649Z,22.76
2023-05-21T17:58:23.711Z,22.70
2023-05-21T18:00:50.573Z,22.64
2023-05-21T18:03:19.897Z,22.58
2023-05-21T18:05:49.394Z,22.53
2023-05-21T18:08:18.704Z,22.47
2023-05-21T18:10:48.042Z,22.44
2023-05-21T18:13:22.668Z,22.39
2023-05-21T18:15:49.932Z,22.33
2023-05-21T18:18:21.612Z,22.28
2023-05-21T18:20:51.759Z,22.23
2023-05-21T18:23:18.804Z,22.20
2023-05-21T18:25:53.141Z,22.18
2023-05-21T18:28:22.590Z,22.13
2023-05-21T18:30:49.458Z,22.08
2023-05-21T18:33:17.031Z,22.01
2023-05-21T18:35:48.943Z,21.97
2023-05-21T18:38:21.258Z,21.90
2023-05-21T18:40:48.384Z,21.89
2023-05-21T18:43:15.264Z,21.83
2023-05-21T18:45:45.021Z,21.81
2023-05-21T18:48:14.176Z,21.76
2023-05-21T18:50:41.135Z,21.72
2023-05-21T18:53:12.651Z,21.66
2023-05-21T18:55:41.972Z,21.60
2023-05-21T18:58:11.828Z,21.55
2023-05-21T19:00:42.697Z,21.51
2023-05-21T19:03:09.528Z,21.46
2023-05-21T19:05:39.129Z,21.43
2023-05-21T19:08:06.327Z,21.36
2023-05-21T19:10:33.250Z,21.30
2023-05-21T19:13:00.257Z,21.27
2023-05-21T19:15:29.454Z,21.21
2023-05-21T19:17:56.576Z,21.17
2023-05-21T19:20:26.556Z,21.12
2023-05-21T19:22:55.908Z,21.05
2023-05-21T19:25:25.361Z,20.99
2023-05-21T19:27:52.993Z,20.94
2023-05-21T19:30:24.926Z,20.90
2023-05-21T19:32:56.797Z,20.89
2023-05-21T19:35:25.952Z,20.85
2023-05-21T19:37:59.646Z,20.79
2023-05-21T19:40:28.133Z,20.78
2023-05-21T19:42:57.225Z,20.74
2023-05-21T19:45:26.372Z,20.72
2023-05-21T19:47:56.771Z,20.67
2023-05-21T19:50:28.863Z,20.60
2023-05-21T19:52:57.400Z,20.60
2023-05-21T19:55:35.464Z,20.58
2023-05-21T19:58:02.925Z,20.54
2023-05-21T20:00:29.784Z,20.49
2023-05-21T20:03:01.792Z,20.45
2023-05-21T20:05:28.756Z,20.40
2023-05-21T20:07:56.109Z,20.38
2023-05-21T20:10:25.206Z,20.36
2023-05-21T20:12:54.390Z,20.31
2023-05-21T20:15:23.838Z,20.28
2023-05-21T20:17:56.540Z,20.25
2023-05-21T20:20:28.197Z,20.21
2023-05-21T20:23:03.343Z,20.17
2023-05-21T20:25:30.598Z,20.14
2023-05-21T20:28:08.279Z,20.07
2023-05-21T20:30:57.795Z,20.04
2023-05-21T20:33:31.505Z,20.04
2023-05-21T20:36:03.821Z,20.00
2023-05-21T20:38:33.433Z,19.97
2023-05-21T20:41:05.206Z,19.94
2023-05-21T20:43:37.509Z,19.90
2023-05-21T20:46:05.997Z,19.86
2023-05-21T20:48:35.762Z,19.80
2023-05-21T20:51:05.520Z,19.75
2023-05-21T20:53:32.633Z,19.76
2023-05-21T20:56:02.266Z,19.76
2023-05-21T20:58:29.118Z,19.72
2023-05-21T21:01:01.999Z,19.70
2023-05-21T21:03:34.424Z,19.67
2023-05-21T21:06:06.860Z,19.63
2023-05-21T21:08:36.150Z,19.60
2023-05-21T21:11:03.144Z,19.57
2023-05-21T21:13:32.305Z,19.56
2023-05-21T21:16:03.641Z,19.55
2023-05-21T21:18:30.998Z,19.51
2023-05-21T21:21:00.929Z,19.51
2023-05-21T21:23:30.945Z,19.41
2023-05-21T21:26:00.034Z,19.25
2023-05-21T21:28:27.153Z,19.35
2023-05-21T21:30:58.699Z,19.30
2023-05-21T21:33:32.729Z,19.21
2023-05-21T21:36:00.567Z,19.17
2023-05-21T21:38:27.485Z,19.10
2023-05-21T21:40:56.793Z,19.04
2023-05-21T21:43:31.390Z,18.96
2023-05-21T21:46:00.566Z,18.99
2023-05-21T21:48:29.688Z,18.93
2023-05-21T21:50:57.183Z,18.81
2023-05-21T21:53:24.008Z,18.84
2023-05-21T21:55:51.412Z,18.79
2023-05-21T21:58:20.512Z,18.72
2023-05-21T22:00:52.890Z,18.61
2023-05-21T22:03:24.428Z,18.60
2023-05-21T22:05:55.257Z,18.47
2023-05-21T22:08:22.097Z,18.43
2023-05-21T22:10:53.784Z,18.46
2023-05-21T22:13:23.101Z,18.41
2023-05-21T22:15:52.421Z,18.36
2023-05-21T22:18:28.256Z,18.26
2023-05-21T22:21:04.051Z,18.15
2023-05-21T22:23:31.070Z,18.09
2023-05-21T22:25:57.933Z,18.04
2023-05-21T22:28:27.143Z,17.97
2023-05-21T22:30:56.299Z,17.88
2023-05-21T22:33:23.180Z,17.85
2023-05-21T22:35:52.712Z,17.74
2023-05-21T22:38:22.296Z,17.75
2023-05-21T22:40:51.648Z,17.69
2023-05-21T22:43:20.943Z,17.53
2023-05-21T22:45:50.022Z,17.53
2023-05-21T22:48:22.161Z,17.35
2023-05-21T22:50:53.669Z,17.35
2023-05-21T22:53:20.907Z,17.35
2023-05-21T22:55:50.169Z,17.30
2023-05-21T22:58:17.981Z,17.34
2023-05-21T23:00:49.639Z,17.33
2023-05-21T23:03:16.962Z,17.27
2023-05-21T23:05:48.428Z,17.26
2023-05-21T23:08:15.535Z,17.17
2023-05-21T23:10:44.806Z,17.16
2023-05-21T23:13:12.979Z,17.09
2023-05-21T23:15:44.093Z,17.05
2023-05-21T23:18:11.568Z,16.96
2023-05-21T23:20:43.897Z,17.01
2023-05-21T23:23:17.684Z,16.91
2023-05-21T23:25:46.748Z,16.89
2023-05-21T23:28:16.065Z,16.87
2023-05-21T23:30:42.858Z,16.80
2023-05-21T23:33:10.069Z,16.76
2023-05-21T23:35:36.917Z,16.74
2023-05-21T23:38:03.867Z,16.70
2023-05-21T23:40:32.841Z,16.56
2023-05-21T23:43:01.997Z,16.56
2023-05-21T23:45:34.045Z,16.51
2023-05-21T23:48:03.463Z,16.48
2023-05-21T23:50:30.404Z,16.45
2023-05-21T23:52:59.522Z,16.38
2023-05-21T23:55:26.513Z,16.37
2023-05-21T23:57:53.354Z,16.36
